sensor_id;sensor_type;location;lat;lon;timestamp;temperature;humidity
439;DHT22;206;48.782;9.252;2024-02-26T00:01:53;10.20;25.90
439;DHT22;206;48.782;9.252;2024-02-26T00:04:18;10.20;25.50
439;DHT22;206;48.782;9.252;2024-02-26T00:06:44;10.20;25.30
439;DHT22;206;48.782;9.252;2024-02-26T00:09:10;10.20;25.30
439;DHT22;206;48.782;9.252;2024-02-26T00:11:36;10.20;25.30
439;DHT22;206;48.782;9.252;2024-02-26T00:14:03;10.20;25.90
439;DHT22;206;48.782;9.252;2024-02-26T00:16:29;10.20;25.30
439;DHT22;206;48.782;9.252;2024-02-26T00:18:54;10.20;25.00
439;DHT22;206;48.782;9.252;2024-02-26T00:21:20;10.20;24.80
439;DHT22;206;48.782;9.252;2024-02-26T00:23:45;10.20;24.40
439;DHT22;206;48.782;9.252;2024-02-26T00:26:11;10.20;24.30
439;DHT22;206;48.782;9.252;2024-02-26T00:28:37;10.20;23.80
439;DHT22;206;48.782;9.252;2024-02-26T00:31:03;10.20;23.80
439;DHT22;206;48.782;9.252;2024-02-26T00:33:28;10.10;23.50
439;DHT22;206;48.782;9.252;2024-02-26T00:35:54;10.10;23.00
439;DHT22;206;48.782;9.252;2024-02-26T00:38:20;10.10;23.40
439;DHT22;206;48.782;9.252;2024-02-26T00:40:46;10.10;23.20
439;DHT22;206;48.782;9.252;2024-02-26T00:43:11;10.20;23.50
439;DHT22;206;48.782;9.252;2024-02-26T00:45:37;10.20;23.00
439;DHT22;206;48.782;9.252;2024-02-26T00:48:03;10.20;23.30
439;DHT22;206;48.782;9.252;2024-02-26T00:50:31;10.20;23.50
439;DHT22;206;48.782;9.252;2024-02-26T00:52:57;10.20;23.50
439;DHT22;206;48.782;9.252;2024-02-26T00:55:23;10.20;23.40
439;DHT22;206;48.782;9.252;2024-02-26T00:57:49;10.20;23.60
439;DHT22;206;48.782;9.252;2024-02-26T01:00:14;10.20;23.70
439;DHT22;206;48.782;9.252;2024-02-26T01:02:40;10.20;23.70
439;DHT22;206;48.782;9.252;2024-02-26T01:05:07;10.20;23.70
439;DHT22;206;48.782;9.252;2024-02-26T01:07:34;10.30;23.60
439;DHT22;206;48.782;9.252;2024-02-26T01:10:04;10.30;23.70
439;DHT22;206;48.782;9.252;2024-02-26T01:12:31;10.30;23.90
439;DHT22;206;48.782;9.252;2024-02-26T01:14:57;10.30;23.70
439;DHT22;206;48.782;9.252;2024-02-26T01:17:23;10.30;23.20
439;DHT22;206;48.782;9.252;2024-02-26T01:19:48;10.30;23.40
439;DHT22;206;48.782;9.252;2024-02-26T01:22:14;10.30;23.20
439;DHT22;206;48.782;9.252;2024-02-26T01:24:40;10.30;23.50
439;DHT22;206;48.782;9.252;2024-02-26T01:27:05;10.30;23.60
439;DHT22;206;48.782;9.252;2024-02-26T01:29:33;10.30;23.80
439;DHT22;206;48.782;9.252;2024-02-26T01:31:58;10.20;24.10
439;DHT22;206;48.782;9.252;2024-02-26T01:34:24;10.10;23.80
439;DHT22;206;48.782;9.252;2024-02-26T01:36:49;10.10;24.00
439;DHT22;206;48.782;9.252;2024-02-26T01:39:15;10.10;24.20
439;DHT22;206;48.782;9.252;2024-02-26T01:41:41;10.10;24.10
439;DHT22;206;48.782;9.252;2024-02-26T01:44:06;10.10;24.00
439;DHT22;206;48.782;9.252;2024-02-26T01:46:34;10.10;24.00
439;DHT22;206;48.782;9.252;2024-02-26T01:49:01;10.10;24.10
439;DHT22;206;48.782;9.252;2024-02-26T01:51:27;10.10;23.90
439;DHT22;206;48.782;9.252;2024-02-26T01:53:54;10.10;23.90
439;DHT22;206;48.782;9.252;2024-02-26T01:56:20;10.10;24.10
439;DHT22;206;48.782;9.252;2024-02-26T01:58:47;10.10;24.30
439;DHT22;206;48.782;9.252;2024-02-26T02:01:15;10.10;24.50
439;DHT22;206;48.782;9.252;2024-02-26T02:03:42;10.10;24.60
439;DHT22;206;48.782;9.252;2024-02-26T02:06:07;10.10;24.60
439;DHT22;206;48.782;9.252;2024-02-26T02:08:34;10.10;24.50
439;DHT22;206;48.782;9.252;2024-02-26T02:11:00;10.00;24.10
439;DHT22;206;48.782;9.252;2024-02-26T02:13:26;10.10;24.70
439;DHT22;206;48.782;9.252;2024-02-26T02:15:52;10.00;25.00
439;DHT22;206;48.782;9.252;2024-02-26T02:18:18;10.10;25.20
439;DHT22;206;48.782;9.252;2024-02-26T02:20:44;10.10;25.10
439;DHT22;206;48.782;9.252;2024-02-26T02:23:10;10.10;24.60
439;DHT22;206;48.782;9.252;2024-02-26T02:25:36;10.10;24.70
439;DHT22;206;48.782;9.252;2024-02-26T02:28:01;10.10;24.90
439;DHT22;206;48.782;9.252;2024-02-26T02:30:29;10.10;25.00
439;DHT22;206;48.782;9.252;2024-02-26T02:32:55;10.10;25.20
439;DHT22;206;48.782;9.252;2024-02-26T02:35:22;10.10;25.00
439;DHT22;206;48.782;9.252;2024-02-26T02:37:49;10.10;24.70
439;DHT22;206;48.782;9.252;2024-02-26T02:40:15;10.10;24.40
439;DHT22;206;48.782;9.252;2024-02-26T02:42:40;10.00;24.70
439;DHT22;206;48.782;9.252;2024-02-26T02:45:06;10.00;25.10
439;DHT22;206;48.782;9.252;2024-02-26T02:47:36;10.00;25.10
439;DHT22;206;48.782;9.252;2024-02-26T02:50:02;10.00;25.10
439;DHT22;206;48.782;9.252;2024-02-26T02:52:27;10.00;24.50
439;DHT22;206;48.782;9.252;2024-02-26T02:54:53;9.90;25.20
439;DHT22;206;48.782;9.252;2024-02-26T02:57:18;10.00;24.50
439;DHT22;206;48.782;9.252;2024-02-26T02:59:44;9.90;24.80
439;DHT22;206;48.782;9.252;2024-02-26T03:02:10;10.00;24.70
439;DHT22;206;48.782;9.252;2024-02-26T03:04:35;10.00;25.00
439;DHT22;206;48.782;9.252;2024-02-26T03:07:01;10.00;25.20
439;DHT22;206;48.782;9.252;2024-02-26T03:09:27;10.10;25.20
439;DHT22;206;48.782;9.252;2024-02-26T03:11:52;10.10;25.20
439;DHT22;206;48.782;9.252;2024-02-26T03:14:18;10.10;25.20
439;DHT22;206;48.782;9.252;2024-02-26T03:16:43;10.10;25.30
439;DHT22;206;48.782;9.252;2024-02-26T03:19:09;10.10;25.20
439;DHT22;206;48.782;9.252;2024-02-26T03:21:34;9.90;25.80
439;DHT22;206;48.782;9.252;2024-02-26T03:24:00;9.90;25.80
439;DHT22;206;48.782;9.252;2024-02-26T03:26:26;9.70;25.10
439;DHT22;206;48.782;9.252;2024-02-26T03:28:51;9.70;24.50
439;DHT22;206;48.782;9.252;2024-02-26T03:31:17;9.80;25.40
439;DHT22;206;48.782;9.252;2024-02-26T03:33:42;9.80;25.80
439;DHT22;206;48.782;9.252;2024-02-26T03:36:08;9.90;26.00
439;DHT22;206;48.782;9.252;2024-02-26T03:38:33;9.90;25.90
439;DHT22;206;48.782;9.252;2024-02-26T03:40:59;9.90;25.80
439;DHT22;206;48.782;9.252;2024-02-26T03:43:25;9.90;25.90
439;DHT22;206;48.782;9.252;2024-02-26T03:45:50;10.00;25.10
439;DHT22;206;48.782;9.252;2024-02-26T03:48:16;10.00;25.10
439;DHT22;206;48.782;9.252;2024-02-26T03:50:41;10.00;25.20
439;DHT22;206;48.782;9.252;2024-02-26T03:53:07;10.00;24.50
439;DHT22;206;48.782;9.252;2024-02-26T03:55:34;10.00;25.10
439;DHT22;206;48.782;9.252;2024-02-26T03:58:00;10.00;25.20
439;DHT22;206;48.782;9.252;2024-02-26T04:00:26;10.10;26.20
439;DHT22;206;48.782;9.252;2024-02-26T04:02:51;10.10;26.50
439;DHT22;206;48.782;9.252;2024-02-26T04:05:17;10.10;26.50
439;DHT22;206;48.782;9.252;2024-02-26T04:07:43;10.10;26.50
439;DHT22;206;48.782;9.252;2024-02-26T04:10:09;10.10;26.70
439;DHT22;206;48.782;9.252;2024-02-26T04:12:35;10.10;26.90
439;DHT22;206;48.782;9.252;2024-02-26T04:15:01;10.10;27.40
439;DHT22;206;48.782;9.252;2024-02-26T04:17:26;10.00;27.80
439;DHT22;206;48.782;9.252;2024-02-26T04:19:52;10.00;27.90
439;DHT22;206;48.782;9.252;2024-02-26T04:22:17;9.90;28.60
439;DHT22;206;48.782;9.252;2024-02-26T04:24:43;9.90;28.30
439;DHT22;206;48.782;9.252;2024-02-26T04:27:08;9.90;27.60
439;DHT22;206;48.782;9.252;2024-02-26T04:29:34;9.90;28.60
439;DHT22;206;48.782;9.252;2024-02-26T04:32:00;9.90;28.40
439;DHT22;206;48.782;9.252;2024-02-26T04:34:25;10.00;28.40
439;DHT22;206;48.782;9.252;2024-02-26T04:36:51;10.00;28.30
439;DHT22;206;48.782;9.252;2024-02-26T04:39:16;10.00;28.20
439;DHT22;206;48.782;9.252;2024-02-26T04:41:42;10.00;28.10
439;DHT22;206;48.782;9.252;2024-02-26T04:44:07;10.00;28.30
439;DHT22;206;48.782;9.252;2024-02-26T04:46:33;9.90;29.10
439;DHT22;206;48.782;9.252;2024-02-26T04:49:00;9.90;29.30
439;DHT22;206;48.782;9.252;2024-02-26T04:51:25;10.00;28.90
439;DHT22;206;48.782;9.252;2024-02-26T04:53:51;10.00;29.20
439;DHT22;206;48.782;9.252;2024-02-26T04:56:20;9.90;29.20
439;DHT22;206;48.782;9.252;2024-02-26T04:58:46;9.90;28.80
439;DHT22;206;48.782;9.252;2024-02-26T05:01:11;9.90;28.70
439;DHT22;206;48.782;9.252;2024-02-26T05:03:37;9.80;28.50
439;DHT22;206;48.782;9.252;2024-02-26T05:06:03;9.80;28.70
439;DHT22;206;48.782;9.252;2024-02-26T05:08:29;9.70;28.40
439;DHT22;206;48.782;9.252;2024-02-26T05:10:56;9.70;28.30
439;DHT22;206;48.782;9.252;2024-02-26T05:13:22;9.70;28.40
439;DHT22;206;48.782;9.252;2024-02-26T05:15:47;9.70;27.90
439;DHT22;206;48.782;9.252;2024-02-26T05:18:15;9.70;27.30
439;DHT22;206;48.782;9.252;2024-02-26T05:20:40;9.70;26.90
439;DHT22;206;48.782;9.252;2024-02-26T05:23:06;9.70;26.90
439;DHT22;206;48.782;9.252;2024-02-26T05:25:32;9.70;27.00
439;DHT22;206;48.782;9.252;2024-02-26T05:27:57;9.70;27.20
439;DHT22;206;48.782;9.252;2024-02-26T05:30:23;9.80;27.40
439;DHT22;206;48.782;9.252;2024-02-26T05:32:49;9.80;27.20
439;DHT22;206;48.782;9.252;2024-02-26T05:35:14;9.80;27.20
439;DHT22;206;48.782;9.252;2024-02-26T05:37:40;9.90;27.00
439;DHT22;206;48.782;9.252;2024-02-26T05:40:07;9.90;26.50
439;DHT22;206;48.782;9.252;2024-02-26T05:42:33;9.90;26.50
439;DHT22;206;48.782;9.252;2024-02-26T05:44:58;9.90;26.70
439;DHT22;206;48.782;9.252;2024-02-26T05:47:24;9.90;27.10
439;DHT22;206;48.782;9.252;2024-02-26T05:49:50;10.00;26.80
439;DHT22;206;48.782;9.252;2024-02-26T05:52:15;9.90;27.80
439;DHT22;206;48.782;9.252;2024-02-26T05:54:41;10.00;26.80
439;DHT22;206;48.782;9.252;2024-02-26T05:57:06;10.00;27.10
439;DHT22;206;48.782;9.252;2024-02-26T05:59:32;10.00;26.50
439;DHT22;206;48.782;9.252;2024-02-26T06:01:57;9.90;27.70
439;DHT22;206;48.782;9.252;2024-02-26T06:04:23;9.90;28.00
439;DHT22;206;48.782;9.252;2024-02-26T06:06:48;9.90;29.10
439;DHT22;206;48.782;9.252;2024-02-26T06:09:15;9.90;28.80
439;DHT22;206;48.782;9.252;2024-02-26T06:11:40;9.80;28.80
439;DHT22;206;48.782;9.252;2024-02-26T06:14:06;9.80;30.10
439;DHT22;206;48.782;9.252;2024-02-26T06:16:32;9.80;30.70
439;DHT22;206;48.782;9.252;2024-02-26T06:18:58;9.90;31.10
439;DHT22;206;48.782;9.252;2024-02-26T06:21:25;9.80;31.70
439;DHT22;206;48.782;9.252;2024-02-26T06:23:51;9.60;31.60
439;DHT22;206;48.782;9.252;2024-02-26T06:26:17;9.50;32.70
439;DHT22;206;48.782;9.252;2024-02-26T06:28:42;9.50;33.60
439;DHT22;206;48.782;9.252;2024-02-26T06:31:08;9.40;35.20
439;DHT22;206;48.782;9.252;2024-02-26T06:33:34;9.50;35.30
439;DHT22;206;48.782;9.252;2024-02-26T06:35:59;9.50;35.00
439;DHT22;206;48.782;9.252;2024-02-26T06:38:25;9.40;34.30
439;DHT22;206;48.782;9.252;2024-02-26T06:40:50;9.40;34.30
439;DHT22;206;48.782;9.252;2024-02-26T06:43:16;9.50;34.00
439;DHT22;206;48.782;9.252;2024-02-26T06:45:42;9.50;34.40
439;DHT22;206;48.782;9.252;2024-02-26T06:48:07;9.50;34.90
439;DHT22;206;48.782;9.252;2024-02-26T06:50:33;9.70;34.50
439;DHT22;206;48.782;9.252;2024-02-26T06:52:58;9.70;34.50
439;DHT22;206;48.782;9.252;2024-02-26T06:55:24;9.70;34.50
439;DHT22;206;48.782;9.252;2024-02-26T06:57:50;9.70;33.70
439;DHT22;206;48.782;9.252;2024-02-26T07:00:15;9.80;34.30
439;DHT22;206;48.782;9.252;2024-02-26T07:02:42;9.80;34.60
439;DHT22;206;48.782;9.252;2024-02-26T07:05:08;9.90;36.00
439;DHT22;206;48.782;9.252;2024-02-26T07:07:34;10.00;34.80
439;DHT22;206;48.782;9.252;2024-02-26T07:10:00;10.10;35.20
439;DHT22;206;48.782;9.252;2024-02-26T07:12:31;10.10;33.90
439;DHT22;206;48.782;9.252;2024-02-26T07:14:57;10.20;34.00
439;DHT22;206;48.782;9.252;2024-02-26T07:17:23;10.10;33.30
439;DHT22;206;48.782;9.252;2024-02-26T07:19:49;10.10;33.30
439;DHT22;206;48.782;9.252;2024-02-26T07:22:15;10.20;33.50
439;DHT22;206;48.782;9.252;2024-02-26T07:24:41;10.20;33.20
439;DHT22;206;48.782;9.252;2024-02-26T07:27:06;10.20;32.80
439;DHT22;206;48.782;9.252;2024-02-26T07:29:32;10.20;32.70
439;DHT22;206;48.782;9.252;2024-02-26T07:31:58;10.10;33.10
439;DHT22;206;48.782;9.252;2024-02-26T07:34:24;10.10;33.30
439;DHT22;206;48.782;9.252;2024-02-26T07:36:57;10.10;32.40
439;DHT22;206;48.782;9.252;2024-02-26T07:39:22;10.00;31.80
439;DHT22;206;48.782;9.252;2024-02-26T07:41:48;10.10;31.60
439;DHT22;206;48.782;9.252;2024-02-26T07:44:17;10.00;29.60
439;DHT22;206;48.782;9.252;2024-02-26T07:46:42;10.10;30.00
439;DHT22;206;48.782;9.252;2024-02-26T07:49:08;10.20;30.60
439;DHT22;206;48.782;9.252;2024-02-26T07:51:34;10.30;29.30
439;DHT22;206;48.782;9.252;2024-02-26T07:54:00;10.30;29.30
439;DHT22;206;48.782;9.252;2024-02-26T07:56:25;10.40;28.80
439;DHT22;206;48.782;9.252;2024-02-26T07:58:51;10.50;29.00
439;DHT22;206;48.782;9.252;2024-02-26T08:01:17;10.50;28.70
439;DHT22;206;48.782;9.252;2024-02-26T08:03:43;10.60;28.40
439;DHT22;206;48.782;9.252;2024-02-26T08:06:08;10.80;28.10
439;DHT22;206;48.782;9.252;2024-02-26T08:08:34;10.70;25.60
439;DHT22;206;48.782;9.252;2024-02-26T08:11:00;10.80;25.70
439;DHT22;206;48.782;9.252;2024-02-26T08:13:25;10.90;25.80
439;DHT22;206;48.782;9.252;2024-02-26T08:15:52;10.90;25.80
439;DHT22;206;48.782;9.252;2024-02-26T08:18:18;11.00;25.40
439;DHT22;206;48.782;9.252;2024-02-26T08:20:44;11.00;25.80
439;DHT22;206;48.782;9.252;2024-02-26T08:23:10;11.10;25.80
439;DHT22;206;48.782;9.252;2024-02-26T08:25:36;11.10;25.60
439;DHT22;206;48.782;9.252;2024-02-26T08:28:01;11.10;25.50
439;DHT22;206;48.782;9.252;2024-02-26T08:30:27;11.20;25.40
439;DHT22;206;48.782;9.252;2024-02-26T08:32:52;11.20;26.00
439;DHT22;206;48.782;9.252;2024-02-26T08:35:19;11.30;25.50
439;DHT22;206;48.782;9.252;2024-02-26T08:37:45;11.40;26.10
439;DHT22;206;48.782;9.252;2024-02-26T08:40:11;11.50;26.20
439;DHT22;206;48.782;9.252;2024-02-26T08:42:37;11.60;25.60
439;DHT22;206;48.782;9.252;2024-02-26T08:45:03;11.70;25.70
439;DHT22;206;48.782;9.252;2024-02-26T08:47:29;11.80;25.30
439;DHT22;206;48.782;9.252;2024-02-26T08:49:55;11.90;24.60
439;DHT22;206;48.782;9.252;2024-02-26T08:52:20;11.90;24.50
439;DHT22;206;48.782;9.252;2024-02-26T08:54:47;12.00;23.90
439;DHT22;206;48.782;9.252;2024-02-26T08:57:13;12.10;23.60
439;DHT22;206;48.782;9.252;2024-02-26T08:59:38;12.10;23.30
439;DHT22;206;48.782;9.252;2024-02-26T09:02:04;12.20;22.90
439;DHT22;206;48.782;9.252;2024-02-26T09:04:29;12.30;22.70
439;DHT22;206;48.782;9.252;2024-02-26T09:06:55;12.40;22.80
439;DHT22;206;48.782;9.252;2024-02-26T09:09:21;12.40;22.50
439;DHT22;206;48.782;9.252;2024-02-26T09:11:48;12.50;22.10
439;DHT22;206;48.782;9.252;2024-02-26T09:14:14;12.50;22.30
439;DHT22;206;48.782;9.252;2024-02-26T09:16:39;12.60;21.90
439;DHT22;206;48.782;9.252;2024-02-26T09:19:05;12.60;21.80
439;DHT22;206;48.782;9.252;2024-02-26T09:21:30;12.70;21.00
439;DHT22;206;48.782;9.252;2024-02-26T09:23:56;12.70;21.20
439;DHT22;206;48.782;9.252;2024-02-26T09:26:22;12.90;21.30
439;DHT22;206;48.782;9.252;2024-02-26T09:28:47;12.90;21.30
439;DHT22;206;48.782;9.252;2024-02-26T09:31:17;12.90;21.10
439;DHT22;206;48.782;9.252;2024-02-26T09:33:43;12.90;20.80
439;DHT22;206;48.782;9.252;2024-02-26T09:36:09;12.90;20.90
439;DHT22;206;48.782;9.252;2024-02-26T09:38:36;13.00;21.10
439;DHT22;206;48.782;9.252;2024-02-26T09:41:04;13.10;20.60
439;DHT22;206;48.782;9.252;2024-02-26T09:43:34;13.20;20.50
439;DHT22;206;48.782;9.252;2024-02-26T09:46:00;13.30;20.20
439;DHT22;206;48.782;9.252;2024-02-26T09:48:27;13.30;20.20
439;DHT22;206;48.782;9.252;2024-02-26T09:50:53;13.40;20.10
439;DHT22;206;48.782;9.252;2024-02-26T09:53:21;13.40;19.40
439;DHT22;206;48.782;9.252;2024-02-26T09:55:47;13.30;19.30
439;DHT22;206;48.782;9.252;2024-02-26T09:58:13;13.20;19.50
439;DHT22;206;48.782;9.252;2024-02-26T10:00:47;13.20;20.50
439;DHT22;206;48.782;9.252;2024-02-26T10:03:15;13.20;21.00
439;DHT22;206;48.782;9.252;2024-02-26T10:05:42;13.20;21.60
439;DHT22;206;48.782;9.252;2024-02-26T10:08:13;13.40;21.90
439;DHT22;206;48.782;9.252;2024-02-26T10:10:39;13.60;21.40
439;DHT22;206;48.782;9.252;2024-02-26T10:13:05;13.80;21.10
439;DHT22;206;48.782;9.252;2024-02-26T10:15:36;13.90;19.70
439;DHT22;206;48.782;9.252;2024-02-26T10:18:04;14.20;19.60
439;DHT22;206;48.782;9.252;2024-02-26T10:20:31;14.40;19.10
439;DHT22;206;48.782;9.252;2024-02-26T10:22:57;14.60;18.50
439;DHT22;206;48.782;9.252;2024-02-26T10:25:23;14.90;17.30
439;DHT22;206;48.782;9.252;2024-02-26T10:27:49;14.90;15.90
439;DHT22;206;48.782;9.252;2024-02-26T10:30:19;14.90;16.20
439;DHT22;206;48.782;9.252;2024-02-26T10:32:46;15.10;16.30
439;DHT22;206;48.782;9.252;2024-02-26T10:35:15;15.20;16.20
439;DHT22;206;48.782;9.252;2024-02-26T10:37:43;15.20;16.30
439;DHT22;206;48.782;9.252;2024-02-26T10:40:12;15.20;16.10
439;DHT22;206;48.782;9.252;2024-02-26T10:42:38;15.30;16.50
439;DHT22;206;48.782;9.252;2024-02-26T10:45:05;15.30;16.10
439;DHT22;206;48.782;9.252;2024-02-26T10:47:31;15.30;16.00
439;DHT22;206;48.782;9.252;2024-02-26T10:49:59;15.30;16.20
439;DHT22;206;48.782;9.252;2024-02-26T10:52:25;15.30;15.60
439;DHT22;206;48.782;9.252;2024-02-26T10:54:54;15.20;16.20
439;DHT22;206;48.782;9.252;2024-02-26T10:57:22;15.10;16.30
439;DHT22;206;48.782;9.252;2024-02-26T10:59:51;15.00;16.20
439;DHT22;206;48.782;9.252;2024-02-26T11:02:17;15.00;16.50
439;DHT22;206;48.782;9.252;2024-02-26T11:04:44;15.00;16.20
439;DHT22;206;48.782;9.252;2024-02-26T11:07:11;15.10;16.50
439;DHT22;206;48.782;9.252;2024-02-26T11:09:37;15.20;16.60
439;DHT22;206;48.782;9.252;2024-02-26T11:12:10;15.40;16.50
439;DHT22;206;48.782;9.252;2024-02-26T11:14:39;15.40;16.50
439;DHT22;206;48.782;9.252;2024-02-26T11:17:07;15.50;16.40
439;DHT22;206;48.782;9.252;2024-02-26T11:19:35;15.50;16.00
439;DHT22;206;48.782;9.252;2024-02-26T11:22:01;15.50;16.10
439;DHT22;206;48.782;9.252;2024-02-26T11:24:28;15.40;15.90
439;DHT22;206;48.782;9.252;2024-02-26T11:26:58;15.40;16.40
439;DHT22;206;48.782;9.252;2024-02-26T11:29:32;15.20;16.70
439;DHT22;206;48.782;9.252;2024-02-26T11:32:00;15.10;16.80
439;DHT22;206;48.782;9.252;2024-02-26T11:34:26;15.00;17.10
439;DHT22;206;48.782;9.252;2024-02-26T11:36:52;15.00;17.20
439;DHT22;206;48.782;9.252;2024-02-26T11:39:18;15.00;17.30
439;DHT22;206;48.782;9.252;2024-02-26T11:41:43;15.10;17.40
439;DHT22;206;48.782;9.252;2024-02-26T11:44:09;15.20;17.30
439;DHT22;206;48.782;9.252;2024-02-26T11:46:42;15.40;17.10
439;DHT22;206;48.782;9.252;2024-02-26T11:51:57;15.90;15.80
439;DHT22;206;48.782;9.252;2024-02-26T11:59:54;16.10;15.10
439;DHT22;206;48.782;9.252;2024-02-26T12:05:20;16.40;15.30
439;DHT22;206;48.782;9.252;2024-02-26T12:07:59;16.50;14.70
439;DHT22;206;48.782;9.252;2024-02-26T12:10:38;16.60;15.00
439;DHT22;206;48.782;9.252;2024-02-26T12:13:10;16.70;14.80
439;DHT22;206;48.782;9.252;2024-02-26T12:15:39;16.80;14.50
439;DHT22;206;48.782;9.252;2024-02-26T12:18:06;17.00;14.20
439;DHT22;206;48.782;9.252;2024-02-26T12:20:33;17.00;14.20
439;DHT22;206;48.782;9.252;2024-02-26T12:23:02;17.00;14.20
439;DHT22;206;48.782;9.252;2024-02-26T12:25:29;17.00;14.30
439;DHT22;206;48.782;9.252;2024-02-26T12:27:55;17.10;14.60
439;DHT22;206;48.782;9.252;2024-02-26T12:30:22;17.10;14.10
439;DHT22;206;48.782;9.252;2024-02-26T12:32:49;17.20;14.30
439;DHT22;206;48.782;9.252;2024-02-26T12:35:15;17.30;14.20
439;DHT22;206;48.782;9.252;2024-02-26T12:37:42;17.30;13.90
439;DHT22;206;48.782;9.252;2024-02-26T12:40:09;17.30;13.80
439;DHT22;206;48.782;9.252;2024-02-26T12:42:36;17.30;13.60
439;DHT22;206;48.782;9.252;2024-02-26T12:45:09;17.20;13.80
439;DHT22;206;48.782;9.252;2024-02-26T12:47:39;17.20;13.90
439;DHT22;206;48.782;9.252;2024-02-26T12:50:06;17.30;13.60
439;DHT22;206;48.782;9.252;2024-02-26T12:52:37;17.30;13.30
439;DHT22;206;48.782;9.252;2024-02-26T12:55:05;17.20;13.50
439;DHT22;206;48.782;9.252;2024-02-26T12:57:36;17.40;13.30
439;DHT22;206;48.782;9.252;2024-02-26T13:00:06;17.50;13.00
439;DHT22;206;48.782;9.252;2024-02-26T13:02:37;17.70;12.70
439;DHT22;206;48.782;9.252;2024-02-26T13:05:04;17.80;12.70
439;DHT22;206;48.782;9.252;2024-02-26T13:07:31;17.70;12.80
439;DHT22;206;48.782;9.252;2024-02-26T13:09:56;17.70;13.00
439;DHT22;206;48.782;9.252;2024-02-26T13:12:22;17.70;13.00
439;DHT22;206;48.782;9.252;2024-02-26T13:15:01;17.70;13.00
439;DHT22;206;48.782;9.252;2024-02-26T13:17:27;17.70;12.80
439;DHT22;206;48.782;9.252;2024-02-26T13:19:54;17.60;12.60
439;DHT22;206;48.782;9.252;2024-02-26T13:22:22;17.60;13.00
439;DHT22;206;48.782;9.252;2024-02-26T13:24:59;17.50;12.70
439;DHT22;206;48.782;9.252;2024-02-26T13:27:25;17.00;13.40
439;DHT22;206;48.782;9.252;2024-02-26T13:30:11;16.60;13.10
439;DHT22;206;48.782;9.252;2024-02-26T13:32:39;16.20;13.60
439;DHT22;206;48.782;9.252;2024-02-26T13:35:09;16.10;14.10
439;DHT22;206;48.782;9.252;2024-02-26T13:37:36;16.00;14.30
439;DHT22;206;48.782;9.252;2024-02-26T13:40:09;16.00;14.20
439;DHT22;206;48.782;9.252;2024-02-26T13:42:36;16.20;14.50
439;DHT22;206;48.782;9.252;2024-02-26T13:45:02;16.10;13.80
439;DHT22;206;48.782;9.252;2024-02-26T13:47:28;16.30;13.30
439;DHT22;206;48.782;9.252;2024-02-26T13:49:53;16.30;13.40
439;DHT22;206;48.782;9.252;2024-02-26T13:52:19;16.40;13.00
439;DHT22;206;48.782;9.252;2024-02-26T13:54:46;16.50;13.00
439;DHT22;206;48.782;9.252;2024-02-26T13:57:12;16.40;13.50
439;DHT22;206;48.782;9.252;2024-02-26T13:59:37;16.30;12.90
439;DHT22;206;48.782;9.252;2024-02-26T14:02:08;16.30;12.90
439;DHT22;206;48.782;9.252;2024-02-26T14:04:33;16.50;13.00
439;DHT22;206;48.782;9.252;2024-02-26T14:06:59;16.60;12.50
439;DHT22;206;48.782;9.252;2024-02-26T14:09:24;16.70;12.50
439;DHT22;206;48.782;9.252;2024-02-26T14:11:50;16.80;12.20
439;DHT22;206;48.782;9.252;2024-02-26T14:14:16;16.60;12.40
439;DHT22;206;48.782;9.252;2024-02-26T14:16:41;16.70;12.40
439;DHT22;206;48.782;9.252;2024-02-26T14:19:07;16.20;11.80
439;DHT22;206;48.782;9.252;2024-02-26T14:21:32;16.30;11.40
439;DHT22;206;48.782;9.252;2024-02-26T14:23:58;16.40;11.40
439;DHT22;206;48.782;9.252;2024-02-26T14:26:23;16.30;11.50
439;DHT22;206;48.782;9.252;2024-02-26T14:28:49;16.20;11.70
439;DHT22;206;48.782;9.252;2024-02-26T14:31:18;16.10;11.30
439;DHT22;206;48.782;9.252;2024-02-26T14:33:44;16.20;11.90
439;DHT22;206;48.782;9.252;2024-02-26T14:36:10;16.20;12.80
439;DHT22;206;48.782;9.252;2024-02-26T14:38:36;16.20;12.80
439;DHT22;206;48.782;9.252;2024-02-26T14:41:02;16.00;12.70
439;DHT22;206;48.782;9.252;2024-02-26T14:43:29;16.00;12.70
439;DHT22;206;48.782;9.252;2024-02-26T14:45:54;15.90;12.60
439;DHT22;206;48.782;9.252;2024-02-26T14:48:20;15.70;12.50
439;DHT22;206;48.782;9.252;2024-02-26T14:50:45;15.60;12.40
439;DHT22;206;48.782;9.252;2024-02-26T14:53:11;15.50;13.40
439;DHT22;206;48.782;9.252;2024-02-26T14:55:37;15.50;13.60
439;DHT22;206;48.782;9.252;2024-02-26T14:58:02;15.40;13.90
439;DHT22;206;48.782;9.252;2024-02-26T15:00:28;15.30;14.20
439;DHT22;206;48.782;9.252;2024-02-26T15:02:53;15.30;14.20
439;DHT22;206;48.782;9.252;2024-02-26T15:05:20;15.40;14.40
439;DHT22;206;48.782;9.252;2024-02-26T15:07:46;15.40;14.40
439;DHT22;206;48.782;9.252;2024-02-26T15:10:11;15.40;14.30
439;DHT22;206;48.782;9.252;2024-02-26T15:12:38;15.50;14.30
439;DHT22;206;48.782;9.252;2024-02-26T15:15:04;15.50;14.40
439;DHT22;206;48.782;9.252;2024-02-26T15:17:29;15.40;14.30
439;DHT22;206;48.782;9.252;2024-02-26T15:19:57;15.40;14.40
439;DHT22;206;48.782;9.252;2024-02-26T15:22:24;15.40;14.10
439;DHT22;206;48.782;9.252;2024-02-26T15:24:50;15.30;14.80
439;DHT22;206;48.782;9.252;2024-02-26T15:27:15;15.30;14.90
439;DHT22;206;48.782;9.252;2024-02-26T15:29:42;15.10;15.30
439;DHT22;206;48.782;9.252;2024-02-26T15:32:08;15.10;15.70
439;DHT22;206;48.782;9.252;2024-02-26T15:34:33;15.10;15.60
439;DHT22;206;48.782;9.252;2024-02-26T15:36:59;15.20;15.40
439;DHT22;206;48.782;9.252;2024-02-26T15:39:24;15.30;15.50
439;DHT22;206;48.782;9.252;2024-02-26T15:41:50;15.30;15.50
439;DHT22;206;48.782;9.252;2024-02-26T15:44:16;15.40;15.70
439;DHT22;206;48.782;9.252;2024-02-26T15:46:42;15.40;15.70
439;DHT22;206;48.782;9.252;2024-02-26T15:49:08;15.40;15.80
439;DHT22;206;48.782;9.252;2024-02-26T15:51:34;15.20;16.10
439;DHT22;206;48.782;9.252;2024-02-26T15:54:00;15.20;16.40
439;DHT22;206;48.782;9.252;2024-02-26T15:56:26;15.20;16.40
439;DHT22;206;48.782;9.252;2024-02-26T15:58:52;15.10;16.80
439;DHT22;206;48.782;9.252;2024-02-26T16:01:18;15.10;16.90
439;DHT22;206;48.782;9.252;2024-02-26T16:03:45;15.00;17.00
439;DHT22;206;48.782;9.252;2024-02-26T16:06:43;15.00;17.20
439;DHT22;206;48.782;9.252;2024-02-26T16:09:06;15.00;17.40
439;DHT22;206;48.782;9.252;2024-02-26T16:11:33;14.80;17.50
439;DHT22;206;48.782;9.252;2024-02-26T16:17:05;14.80;17.90
439;DHT22;206;48.782;9.252;2024-02-26T16:19:34;14.60;18.20
439;DHT22;206;48.782;9.252;2024-02-26T16:22:01;14.70;18.30
439;DHT22;206;48.782;9.252;2024-02-26T16:24:26;14.60;18.20
439;DHT22;206;48.782;9.252;2024-02-26T16:26:52;14.70;18.30
439;DHT22;206;48.782;9.252;2024-02-26T16:29:18;14.70;18.40
439;DHT22;206;48.782;9.252;2024-02-26T16:31:44;14.70;18.80
439;DHT22;206;48.782;9.252;2024-02-26T16:34:09;14.60;19.00
439;DHT22;206;48.782;9.252;2024-02-26T16:36:35;14.60;19.00
439;DHT22;206;48.782;9.252;2024-02-26T16:39:00;14.60;19.00
439;DHT22;206;48.782;9.252;2024-02-26T16:41:26;14.50;20.00
439;DHT22;206;48.782;9.252;2024-02-26T16:43:52;14.50;19.40
439;DHT22;206;48.782;9.252;2024-02-26T16:46:17;14.40;19.70